Oil Finn — OJ9326 — position and weather

sailwx.info

Track history (hours):
 
Tides and Currents Weather Stations Pressure Air Temp Water Temp Dewpoint Dewpoint Depression Visibility Wind Speed Wind Dir Waves Ship Positions

Oil Finn

Last reported at 2015-May-22 17:12 UTC. Time now 2015-May-25 11:31 UTC.
Position N 60°09' E 025°02'.

Length 20 m; draft 2 m.

Type: Tanker. MMSI: 230033790.

Date/timePositionNaut miles runAvg speedWind from/ knotsBaromVisibWave heightAir tempDewpointWater temp
2015-May-22 17:12N 60°09' E 025°02'4 5.7
2015-May-22 16:33N 60°10' E 025°10'27 4.3
2015-May-22 10:19N 60°13' E 026°04'6 6.3
2015-May-22 09:18N 60°16' E 026°14'5 6.2
2015-May-22 08:33N 60°18' E 026°23'6 6.2
2015-May-22 07:33N 60°20' E 026°35'6 6.1
2015-May-22 06:33N 60°23' E 026°46'6 6.3
2015-May-22 05:33N 60°20' E 026°58'7 0.4
2015-May-21 13:23N 60°17' E 027°11'0 0.1
2015-May-21 12:07N 60°17' E 027°12'0 0.1
2015-May-21 10:31N 60°17' E 027°11'4 4.5
2015-May-21 09:33N 60°20' E 027°05'7 6.5
2015-May-21 08:34N 60°21' E 026°52'3 2.5
2015-May-21 07:33N 60°21' E 026°47'4 3.5
2015-May-21 06:33N 60°20' E 026°40'6 3.1
2015-May-21 04:33N 60°18' E 026°28'2 0.1
2015-May-20 14:34N 60°17' E 026°27'7 6.1
2015-May-20 13:29N 60°16' E 026°14'6 5.9
2015-May-20 12:26N 60°12' E 026°04'25 4.1
2015-May-20 06:16N 60°10' E 025°13'  
Track history (hours):
 
Tides and Currents Weather Stations Pressure Air Temp Water Temp Dewpoint Dewpoint Depression Visibility Wind Speed Wind Dir Waves Ship Positions

Oil Finn

Last reported at 2015-May-22 17:12 UTC. Time now 2015-May-25 11:31 UTC.
Position N 60°09' E 025°02'.

Length 20 m; draft 2 m.

Type: Tanker. MMSI: 230033790.

Date/timePositionNaut miles runAvg speedWind from/ knotsBaromVisibWave heightAir tempDewpointWater temp
2015-May-22 17:12N 60°09' E 025°02'4 5.7
2015-May-22 16:33N 60°10' E 025°10'27 4.3
2015-May-22 10:19N 60°13' E 026°04'6 6.3
2015-May-22 09:18N 60°16' E 026°14'5 6.2
2015-May-22 08:33N 60°18' E 026°23'6 6.2
2015-May-22 07:33N 60°20' E 026°35'6 6.1
2015-May-22 06:33N 60°23' E 026°46'6 6.3
2015-May-22 05:33N 60°20' E 026°58'7 0.4
2015-May-21 13:23N 60°17' E 027°11'0 0.1
2015-May-21 12:07N 60°17' E 027°12'0 0.1
2015-May-21 10:31N 60°17' E 027°11'4 4.5
2015-May-21 09:33N 60°20' E 027°05'7 6.5
2015-May-21 08:34N 60°21' E 026°52'3 2.5
2015-May-21 07:33N 60°21' E 026°47'4 3.5
2015-May-21 06:33N 60°20' E 026°40'6 3.1
2015-May-21 04:33N 60°18' E 026°28'2 0.1
2015-May-20 14:34N 60°17' E 026°27'7 6.1
2015-May-20 13:29N 60°16' E 026°14'6 5.9
2015-May-20 12:26N 60°12' E 026°04'25 4.1
2015-May-20 06:16N 60°10' E 025°13'  

Dump ship's entire track history